createdAt,value
2022-11-15T00:00:55.143Z,13.30
2022-11-15T00:03:27.707Z,16.83
2022-11-15T00:05:56.164Z,11.90
2022-11-15T00:08:22.835Z,16.25
2022-11-15T00:11:00.288Z,13.82
2022-11-15T00:13:28.013Z,12.13
2022-11-15T00:15:59.158Z,11.27
2022-11-15T00:18:26.085Z,14.18
2022-11-15T00:20:52.857Z,10.88
2022-11-15T00:23:19.677Z,9.77
2022-11-15T00:25:46.413Z,11.35
2022-11-15T00:28:13.518Z,10.82
2022-11-15T00:30:40.232Z,10.30
2022-11-15T00:33:07.847Z,10.05
2022-11-15T00:35:36.644Z,8.15
2022-11-15T00:38:03.708Z,8.82
2022-11-15T00:40:30.635Z,10.93
2022-11-15T00:42:57.426Z,9.38
2022-11-15T00:45:24.770Z,8.02
2022-11-15T00:47:51.491Z,10.40
2022-11-15T00:50:18.824Z,11.82
2022-11-15T00:52:47.229Z,10.73
2022-11-15T00:55:18.211Z,12.57
2022-11-15T00:57:45.520Z,9.85
2022-11-15T01:00:13.418Z,14.13
2022-11-15T01:02:40.149Z,9.65
2022-11-15T01:05:08.732Z,9.32
2022-11-15T01:07:35.459Z,9.35
2022-11-15T01:10:02.195Z,7.47
2022-11-15T01:12:28.903Z,11.27
2022-11-15T01:14:56.905Z,7.88
2022-11-15T01:17:23.722Z,6.80
2022-11-15T01:19:50.575Z,8.50
2022-11-15T01:22:18.734Z,8.20
2022-11-15T01:24:45.444Z,8.55
2022-11-15T01:27:13.213Z,6.90
2022-11-15T01:29:41.183Z,9.38
2022-11-15T01:32:07.897Z,6.35
2022-11-15T01:34:34.960Z,6.25
2022-11-15T01:37:01.691Z,6.30
2022-11-15T01:39:28.620Z,5.70
2022-11-15T01:41:55.785Z,6.35
2022-11-15T01:44:34.820Z,6.82
2022-11-15T01:47:06.500Z,5.85
2022-11-15T01:49:36.404Z,8.57
2022-11-15T01:52:06.269Z,5.75
2022-11-15T01:54:32.981Z,5.50
2022-11-15T01:57:09.836Z,5.53
2022-11-15T01:59:38.919Z,5.82
2022-11-15T02:02:05.777Z,6.25
2022-11-15T02:04:42.001Z,4.40
2022-11-15T02:07:11.092Z,6.68
2022-11-15T02:09:39.249Z,5.25
2022-11-15T02:12:08.322Z,4.82
2022-11-15T02:14:35.995Z,5.30
2022-11-15T02:17:33.540Z,5.18
2022-11-15T02:20:19.092Z,5.97
2022-11-15T02:23:00.858Z,5.75
2022-11-15T02:25:49.108Z,4.65
2022-11-15T02:28:32.053Z,5.60
2022-11-15T02:31:12.248Z,4.43
2022-11-15T02:34:09.736Z,5.07
2022-11-15T02:36:45.135Z,4.15
2022-11-15T02:39:18.389Z,5.07
2022-11-15T02:42:28.816Z,6.00
2022-11-15T02:44:59.248Z,5.72
2022-11-15T02:47:28.901Z,6.50
2022-11-15T02:49:59.722Z,4.72
2022-11-15T02:52:27.161Z,5.35
2022-11-15T02:54:58.209Z,6.25
2022-11-15T02:58:00.768Z,3.45
2022-11-15T03:00:33.731Z,5.72
2022-11-15T03:03:35.316Z,6.57
2022-11-15T03:06:25.950Z,9.23
2022-11-15T03:09:17.352Z,7.07
2022-11-15T03:11:51.911Z,5.88
2022-11-15T03:14:25.228Z,6.63
2022-11-15T03:17:14.107Z,5.63
2022-11-15T03:19:48.530Z,5.68
2022-11-15T03:22:19.832Z,5.05
2022-11-15T03:24:51.399Z,7.68
2022-11-15T03:27:24.016Z,4.63
2022-11-15T03:29:57.348Z,4.60
2022-11-15T03:32:31.647Z,3.87
2022-11-15T03:35:26.096Z,3.95
2022-11-15T03:38:18.344Z,4.43
2022-11-15T03:41:07.258Z,4.07
2022-11-15T03:43:58.358Z,4.30
2022-11-15T03:46:34.925Z,4.53
2022-11-15T03:49:25.779Z,3.67
2022-11-15T03:51:52.745Z,4.63
2022-11-15T03:54:19.473Z,4.20
2022-11-15T03:56:46.198Z,3.25
2022-11-15T03:59:13.966Z,4.80
2022-11-15T04:01:40.686Z,3.80
2022-11-15T04:04:07.480Z,3.50
2022-11-15T04:06:34.792Z,3.28
2022-11-15T04:09:01.449Z,2.90
2022-11-15T04:11:29.256Z,4.13
2022-11-15T04:13:55.973Z,2.95
2022-11-15T04:16:22.652Z,3.13
2022-11-15T04:19:10.376Z,3.00
2022-11-15T04:21:57.427Z,3.25
2022-11-15T04:24:24.172Z,2.83
2022-11-15T04:26:51.208Z,3.08
2022-11-15T04:29:36.087Z,4.88
2022-11-15T04:32:07.528Z,2.67
2022-11-15T04:34:34.516Z,3.63
2022-11-15T04:37:15.461Z,3.90
2022-11-15T04:39:43.085Z,2.40
2022-11-15T04:42:10.580Z,2.58
2022-11-15T04:44:37.385Z,1.63
2022-11-15T04:47:05.526Z,3.13
2022-11-15T04:49:32.513Z,1.70
2022-11-15T04:51:59.221Z,1.75
2022-11-15T04:54:26.021Z,4.38
2022-11-15T04:56:52.799Z,1.92
2022-11-15T04:59:21.089Z,1.80
2022-11-15T05:01:47.886Z,1.95
2022-11-15T05:04:20.575Z,2.00
2022-11-15T05:06:52.350Z,1.80
2022-11-15T05:09:20.695Z,1.63
2022-11-15T05:11:49.374Z,3.50
2022-11-15T05:14:16.402Z,2.83
2022-11-15T05:16:43.596Z,1.25
2022-11-15T05:19:10.473Z,1.40
2022-11-15T05:21:37.629Z,1.27
2022-11-15T05:24:04.862Z,2.75
2022-11-15T05:26:32.101Z,1.50
2022-11-15T05:28:59.974Z,1.40
2022-11-15T05:31:27.725Z,2.13
2022-11-15T05:33:58.062Z,2.20
2022-11-15T05:36:38.072Z,2.35
2022-11-15T05:39:07.855Z,1.58
2022-11-15T05:41:40.635Z,3.75
2022-11-15T05:44:10.400Z,1.77
2022-11-15T05:46:40.694Z,2.17
2022-11-15T05:49:10.515Z,1.67
2022-11-15T05:51:37.255Z,2.45
2022-11-15T05:54:04.770Z,1.33
2022-11-15T05:56:31.622Z,2.17
2022-11-15T05:59:00.069Z,3.22
2022-11-15T06:01:28.017Z,2.40
2022-11-15T06:03:54.714Z,3.17
2022-11-15T06:06:21.698Z,2.15
2022-11-15T06:08:48.920Z,1.80
2022-11-15T06:14:51.818Z,3.70
2022-11-15T06:17:18.499Z,1.65
2022-11-15T06:19:45.257Z,2.53
2022-11-15T06:22:11.981Z,2.28
2022-11-15T06:24:38.735Z,1.42
2022-11-15T06:27:05.526Z,2.35
2022-11-15T06:29:33.935Z,2.95
2022-11-15T06:32:02.239Z,1.60
2022-11-15T06:34:28.986Z,3.45
2022-11-15T06:36:55.654Z,1.63
2022-11-15T06:39:22.342Z,2.95
2022-11-15T06:41:49.057Z,2.80
2022-11-15T06:44:15.930Z,3.60
2022-11-15T06:46:42.624Z,2.35
2022-11-15T06:49:09.913Z,2.65
2022-11-15T06:51:38.084Z,3.38
2022-11-15T06:54:06.387Z,2.50
2022-11-15T06:56:36.255Z,1.75
2022-11-15T06:59:02.992Z,2.10
2022-11-15T07:01:29.913Z,2.53
2022-11-15T07:03:56.891Z,3.17
2022-11-15T07:06:24.910Z,2.30
2022-11-15T07:08:52.649Z,1.92
2022-11-15T07:11:20.978Z,1.90
2022-11-15T07:13:47.844Z,2.50
2022-11-15T07:16:14.591Z,3.90
2022-11-15T07:18:42.710Z,4.15
2022-11-15T07:21:11.866Z,2.35
2022-11-15T07:23:39.839Z,1.70
2022-11-15T07:26:07.669Z,4.97
2022-11-15T07:28:34.452Z,3.65
2022-11-15T07:31:06.521Z,1.48
2022-11-15T07:33:34.084Z,2.35
2022-11-15T07:36:05.343Z,2.83
2022-11-15T07:38:35.732Z,2.45
2022-11-15T07:41:06.311Z,1.67
2022-11-15T07:43:36.516Z,3.00
2022-11-15T07:46:10.818Z,3.22
2022-11-15T07:48:44.652Z,2.45
2022-11-15T07:51:14.702Z,2.17
2022-11-15T07:53:42.595Z,3.05
2022-11-15T07:56:09.401Z,1.85
2022-11-15T07:58:36.550Z,2.75
2022-11-15T08:01:07.850Z,3.03
2022-11-15T08:03:35.129Z,2.38
2022-11-15T08:06:04.899Z,2.75
2022-11-15T08:08:32.542Z,3.22
2022-11-15T08:10:59.901Z,3.53
2022-11-15T08:13:27.337Z,1.17
2022-11-15T08:16:00.358Z,0.95
2022-11-15T08:18:27.139Z,3.20
2022-11-15T08:20:53.834Z,4.78
2022-11-15T08:23:20.670Z,3.17
2022-11-15T08:25:48.696Z,2.28
2022-11-15T08:28:17.687Z,1.52
2022-11-15T08:30:47.182Z,1.02
2022-11-15T08:33:15.389Z,5.03
2022-11-15T08:35:44.396Z,3.58
2022-11-15T08:38:11.641Z,1.88
2022-11-15T08:40:38.624Z,2.15
2022-11-15T08:43:06.789Z,1.75
2022-11-15T08:45:36.196Z,1.17
2022-11-15T08:48:04.275Z,2.90
2022-11-15T08:50:31.397Z,2.08
2022-11-15T08:52:58.485Z,2.72
2022-11-15T08:55:25.253Z,1.73
2022-11-15T08:57:53.561Z,3.58
2022-11-15T09:00:23.191Z,2.78
2022-11-15T09:02:50.113Z,2.60
2022-11-15T09:05:17.267Z,1.85
2022-11-15T09:07:44.505Z,4.80
2022-11-15T09:10:11.628Z,3.40
2022-11-15T09:12:38.491Z,2.03
2022-11-15T09:15:06.875Z,2.13
2022-11-15T09:17:34.034Z,3.30
2022-11-15T09:20:02.127Z,5.32
2022-11-15T09:22:29.637Z,2.38
2022-11-15T09:24:56.857Z,3.67
2022-11-15T09:27:24.149Z,3.50
2022-11-15T09:29:50.913Z,1.88
2022-11-15T09:32:18.126Z,3.15
2022-11-15T09:34:44.885Z,2.95
2022-11-15T09:37:11.752Z,3.30
2022-11-15T09:39:38.565Z,5.47
2022-11-15T09:42:22.855Z,3.95
2022-11-15T09:44:53.001Z,4.40
2022-11-15T09:47:37.831Z,2.15
2022-11-15T09:50:13.009Z,1.20
2022-11-15T09:52:43.914Z,3.00
2022-11-15T09:55:15.580Z,1.52
2022-11-15T09:57:57.718Z,1.60
2022-11-15T10:00:46.674Z,2.28
2022-11-15T10:03:31.937Z,5.30
2022-11-15T10:06:03.967Z,2.35
2022-11-15T10:08:56.330Z,4.13
2022-11-15T10:11:38.186Z,2.50
2022-11-15T10:14:27.893Z,2.70
2022-11-15T10:17:04.962Z,3.25
2022-11-15T10:19:53.746Z,7.03
2022-11-15T10:22:27.000Z,2.45
2022-11-15T10:25:19.893Z,2.63
2022-11-15T10:27:55.995Z,2.42
2022-11-15T10:30:23.947Z,4.70
2022-11-15T10:32:51.161Z,4.25
2022-11-15T10:35:25.155Z,2.10
2022-11-15T10:37:52.282Z,6.82
2022-11-15T10:40:22.787Z,5.15
2022-11-15T10:43:05.955Z,2.58
2022-11-15T10:45:34.990Z,3.67
2022-11-15T10:48:13.696Z,3.80
2022-11-15T10:50:42.448Z,7.03
2022-11-15T10:53:41.757Z,3.58
2022-11-15T10:56:13.900Z,6.55
2022-11-15T10:58:51.545Z,4.82
2022-11-15T11:01:19.968Z,5.63
2022-11-15T11:04:02.974Z,2.58
2022-11-15T11:06:30.797Z,3.58
2022-11-15T11:09:03.831Z,3.75
2022-11-15T11:11:45.764Z,1.92
2022-11-15T11:14:32.025Z,3.85
2022-11-15T11:17:16.828Z,5.35
2022-11-15T11:20:15.661Z,2.50
2022-11-15T11:23:07.552Z,3.55
2022-11-15T11:25:45.504Z,4.00
2022-11-15T11:28:25.875Z,3.55
2022-11-15T11:31:09.195Z,5.13
2022-11-15T11:33:52.937Z,3.70
2022-11-15T11:36:27.060Z,1.98
2022-11-15T11:42:14.726Z,3.33
2022-11-15T11:45:17.583Z,2.13
2022-11-15T11:48:14.841Z,5.35
2022-11-15T11:50:45.748Z,5.90
2022-11-15T11:53:16.603Z,2.25
2022-11-15T11:55:53.311Z,3.58
2022-11-15T11:58:28.282Z,4.15
2022-11-15T12:01:12.929Z,4.40
2022-11-15T12:03:44.255Z,4.55
2022-11-15T12:06:34.543Z,4.32
2022-11-15T12:09:55.520Z,3.35
2022-11-15T12:12:50.630Z,8.73
2022-11-15T12:15:22.003Z,4.82
2022-11-15T12:17:49.915Z,5.35
2022-11-15T12:20:21.163Z,6.55
2022-11-15T12:23:04.846Z,4.75
2022-11-15T12:25:52.994Z,5.28
2022-11-15T12:29:04.795Z,3.97
2022-11-15T12:31:36.354Z,3.92
2022-11-15T12:34:21.599Z,4.57
2022-11-15T12:36:52.277Z,5.22
2022-11-15T12:39:24.747Z,6.28
2022-11-15T12:41:57.520Z,6.05
2022-11-15T12:44:37.709Z,5.85
2022-11-15T12:47:11.289Z,6.93
2022-11-15T12:49:37.997Z,7.32
2022-11-15T12:52:07.816Z,4.50
2022-11-15T12:54:37.944Z,5.60
2022-11-15T12:57:05.077Z,3.08
2022-11-15T13:00:05.434Z,6.50
2022-11-15T13:02:42.741Z,4.40
2022-11-15T13:05:20.176Z,3.90
2022-11-15T13:07:53.851Z,3.10
2022-11-15T13:10:26.611Z,6.03
2022-11-15T13:13:09.057Z,6.35
2022-11-15T13:15:43.222Z,4.65
2022-11-15T13:18:41.163Z,3.85
2022-11-15T13:21:45.005Z,4.63
2022-11-15T13:24:14.987Z,3.63
2022-11-15T13:26:42.031Z,5.85
2022-11-15T13:29:20.653Z,3.28
2022-11-15T13:31:48.286Z,4.60
2022-11-15T13:37:22.083Z,6.78
2022-11-15T13:39:52.617Z,6.75
2022-11-15T13:42:21.357Z,5.07
2022-11-15T13:45:03.394Z,3.78
2022-11-15T13:47:33.059Z,7.07
2022-11-15T13:50:02.392Z,10.68
2022-11-15T13:52:37.335Z,11.40
2022-11-15T13:55:25.339Z,3.00
2022-11-15T13:57:58.026Z,5.70
2022-11-15T14:00:36.722Z,5.38
2022-11-15T14:03:22.166Z,3.88
2022-11-15T14:06:13.146Z,3.13
2022-11-15T14:08:41.692Z,6.15
2022-11-15T14:11:18.069Z,12.00
2022-11-15T14:14:08.928Z,5.95
2022-11-15T14:16:47.459Z,5.60
2022-11-15T14:19:35.347Z,5.65
2022-11-15T14:22:23.178Z,4.68
2022-11-15T14:25:15.209Z,8.10
2022-11-15T14:28:05.946Z,3.08
2022-11-15T14:30:33.175Z,4.93
2022-11-15T14:33:00.344Z,3.28
2022-11-15T14:35:27.571Z,3.65
2022-11-15T14:37:54.292Z,6.30
2022-11-15T14:40:23.016Z,4.25
2022-11-15T14:42:52.700Z,3.95
2022-11-15T14:45:21.934Z,5.38
2022-11-15T14:47:49.516Z,5.13
2022-11-15T14:50:19.365Z,6.82
2022-11-15T14:52:49.006Z,2.65
2022-11-15T14:55:34.086Z,4.13
2022-11-15T14:58:03.350Z,4.47
2022-11-15T15:00:39.507Z,7.20
2022-11-15T15:03:07.327Z,6.10
2022-11-15T15:05:42.597Z,3.95
2022-11-15T15:08:10.079Z,3.00
2022-11-15T15:10:42.704Z,4.63
2022-11-15T15:13:18.995Z,4.75
2022-11-15T15:15:46.136Z,6.63
2022-11-15T15:18:12.995Z,3.25
2022-11-15T15:20:41.394Z,4.75
2022-11-15T15:23:30.945Z,6.15
2022-11-15T15:25:57.987Z,4.75
2022-11-15T15:28:26.667Z,6.63
2022-11-15T15:30:56.744Z,4.38
2022-11-15T15:33:23.672Z,7.00
2022-11-15T15:35:50.469Z,3.80
2022-11-15T15:38:17.766Z,5.60
2022-11-15T15:40:44.710Z,3.03
2022-11-15T15:43:11.581Z,6.72
2022-11-15T15:45:42.101Z,4.30
2022-11-15T15:48:14.448Z,7.15
2022-11-15T15:50:41.423Z,4.82
2022-11-15T15:53:09.172Z,7.07
2022-11-15T15:55:35.949Z,4.40
2022-11-15T15:58:02.878Z,3.95
2022-11-15T16:00:30.998Z,5.97
2022-11-15T16:02:57.875Z,3.80
2022-11-15T16:05:24.981Z,5.90
2022-11-15T16:07:51.840Z,6.15
2022-11-15T16:10:26.068Z,3.88
2022-11-15T16:12:54.252Z,7.03
2022-11-15T16:15:21.972Z,5.32
2022-11-15T16:17:52.206Z,4.05
2022-11-15T16:20:34.782Z,4.65
2022-11-15T16:23:08.805Z,5.47
2022-11-15T16:25:41.668Z,4.68
2022-11-15T16:28:18.902Z,5.97
2022-11-15T16:30:52.433Z,5.90
2022-11-15T16:33:23.535Z,5.40
2022-11-15T16:35:50.328Z,4.93
2022-11-15T16:38:19.108Z,5.03
2022-11-15T16:40:46.263Z,3.38
2022-11-15T16:43:13.495Z,8.40
2022-11-15T16:45:40.314Z,5.90
2022-11-15T16:48:07.051Z,4.43
2022-11-15T16:50:41.236Z,4.03
2022-11-15T16:53:09.250Z,3.70
2022-11-15T16:55:38.431Z,6.30
2022-11-15T16:58:06.509Z,4.75
2022-11-15T17:00:33.226Z,4.22
2022-11-15T17:03:00.080Z,4.75
2022-11-15T17:05:29.567Z,4.00
2022-11-15T17:07:56.549Z,5.20
2022-11-15T17:10:27.798Z,5.93
2022-11-15T17:12:56.373Z,7.65
2022-11-15T17:15:27.384Z,6.40
2022-11-15T17:17:55.017Z,5.28
2022-11-15T17:20:26.172Z,4.45
2022-11-15T17:22:53.033Z,3.67
2022-11-15T17:25:20.206Z,4.05
2022-11-15T17:27:48.367Z,4.63
2022-11-15T17:30:16.443Z,3.63
2022-11-15T17:32:43.973Z,5.35
2022-11-15T17:35:15.591Z,4.18
2022-11-15T17:37:43.035Z,3.05
2022-11-15T17:40:10.802Z,6.97
2022-11-15T17:42:40.227Z,3.15
2022-11-15T17:45:10.367Z,3.22
2022-11-15T17:47:37.873Z,3.90
2022-11-15T17:50:05.078Z,2.95
2022-11-15T17:52:32.006Z,4.30
2022-11-15T17:54:58.723Z,5.85
2022-11-15T17:57:25.875Z,5.22
2022-11-15T17:59:52.663Z,4.72
2022-11-15T18:02:19.701Z,4.93
2022-11-15T18:04:49.449Z,5.45
2022-11-15T18:07:16.306Z,4.93
2022-11-15T18:09:44.546Z,6.57
2022-11-15T18:12:12.114Z,6.03
2022-11-15T18:14:39.191Z,3.50
2022-11-15T18:17:06.264Z,7.93
2022-11-15T18:19:33.023Z,5.55
2022-11-15T18:22:01.004Z,4.55
2022-11-15T18:24:33.843Z,3.85
2022-11-15T18:27:03.873Z,6.40
2022-11-15T18:29:30.825Z,5.90
2022-11-15T18:31:58.904Z,4.47
2022-11-15T18:34:32.109Z,5.82
2022-11-15T18:36:59.248Z,7.72
2022-11-15T18:39:26.044Z,4.78
2022-11-15T18:41:54.255Z,4.95
2022-11-15T18:44:21.063Z,5.55
2022-11-15T18:46:48.612Z,6.07
2022-11-15T18:49:20.390Z,4.85
2022-11-15T18:51:47.624Z,5.43
2022-11-15T18:54:15.858Z,5.53
2022-11-15T18:56:44.623Z,5.85
2022-11-15T18:59:11.599Z,8.07
2022-11-15T19:01:40.928Z,7.45
2022-11-15T19:04:13.427Z,5.72
2022-11-15T19:06:44.355Z,5.78
2022-11-15T19:09:14.548Z,7.65
2022-11-15T19:11:42.850Z,4.72
2022-11-15T19:14:11.880Z,5.15
2022-11-15T19:16:42.346Z,4.68
2022-11-15T19:19:14.896Z,4.70
2022-11-15T19:21:42.454Z,6.68
2022-11-15T19:24:10.540Z,6.50
2022-11-15T19:26:39.174Z,4.95
2022-11-15T19:29:08.183Z,6.43
2022-11-15T19:31:36.440Z,5.20
2022-11-15T19:34:04.706Z,3.65
2022-11-15T19:36:34.899Z,6.10
2022-11-15T19:39:05.261Z,4.35
2022-11-15T19:41:32.430Z,4.88
2022-11-15T19:43:59.326Z,5.22
2022-11-15T19:46:27.003Z,5.00
2022-11-15T19:48:54.762Z,6.10
2022-11-15T19:51:25.336Z,6.95
2022-11-15T19:53:54.446Z,4.75
2022-11-15T19:56:21.757Z,5.30
2022-11-15T19:58:53.876Z,7.40
2022-11-15T20:01:29.263Z,8.32
2022-11-15T20:03:58.629Z,6.78
2022-11-15T20:06:33.407Z,5.35
2022-11-15T20:09:00.128Z,6.80
2022-11-15T20:11:27.384Z,6.70
2022-11-15T20:14:00.011Z,6.85
2022-11-15T20:16:26.960Z,6.80
2022-11-15T20:18:54.180Z,8.90
2022-11-15T20:21:21.963Z,5.95
2022-11-15T20:23:50.859Z,5.90
2022-11-15T20:26:19.372Z,7.72
2022-11-15T20:28:46.210Z,4.90
2022-11-15T20:31:13.550Z,6.82
2022-11-15T20:33:40.941Z,8.93
2022-11-15T20:36:12.938Z,6.47
2022-11-15T20:38:39.893Z,5.95
2022-11-15T20:41:07.066Z,6.30
2022-11-15T20:43:34.002Z,5.65
2022-11-15T20:46:00.689Z,5.03
2022-11-15T20:48:27.333Z,4.82
2022-11-15T20:51:04.365Z,7.45
2022-11-15T20:53:31.754Z,7.28
2022-11-15T20:56:04.525Z,5.70
2022-11-15T20:58:31.541Z,7.68
2022-11-15T21:00:58.777Z,13.00
2022-11-15T21:03:32.100Z,5.03
2022-11-15T21:05:59.016Z,5.50
2022-11-15T21:08:25.921Z,7.28
2022-11-15T21:11:12.789Z,7.03
2022-11-15T21:13:40.069Z,7.63
2022-11-15T21:16:07.367Z,8.95
2022-11-15T21:18:37.000Z,8.85
2022-11-15T21:21:07.431Z,6.18
2022-11-15T21:23:34.110Z,6.78
2022-11-15T21:26:02.026Z,8.18
2022-11-15T21:28:28.732Z,6.30
2022-11-15T21:30:57.758Z,5.25
2022-11-15T21:33:28.205Z,8.73
2022-11-15T21:35:56.263Z,5.07
2022-11-15T21:38:28.203Z,5.80
2022-11-15T21:40:54.975Z,6.00
2022-11-15T21:43:21.687Z,4.80
2022-11-15T21:46:02.382Z,5.78
2022-11-15T21:48:31.141Z,6.72
2022-11-15T21:50:59.714Z,8.30
2022-11-15T21:53:27.825Z,5.00
2022-11-15T21:55:54.984Z,6.97
2022-11-15T21:58:22.448Z,5.07
2022-11-15T22:01:08.828Z,6.22
2022-11-15T22:03:36.000Z,10.20
2022-11-15T22:06:02.794Z,8.55
2022-11-15T22:08:31.291Z,5.75
2022-11-15T22:10:58.429Z,6.70
2022-11-15T22:13:26.330Z,8.85
2022-11-15T22:15:54.289Z,5.65
2022-11-15T22:18:26.398Z,6.90
2022-11-15T22:20:57.807Z,8.20
2022-11-15T22:23:26.163Z,7.57
2022-11-15T22:25:53.354Z,7.22
2022-11-15T22:28:20.851Z,7.03
2022-11-15T22:30:49.491Z,7.68
2022-11-15T22:33:17.358Z,8.07
2022-11-15T22:35:44.184Z,5.70
2022-11-15T22:38:11.179Z,5.45
2022-11-15T22:40:39.732Z,6.28
2022-11-15T22:43:06.886Z,7.97
2022-11-15T22:45:33.951Z,8.93
2022-11-15T22:48:00.729Z,5.63
2022-11-15T22:50:28.902Z,7.05
2022-11-15T22:52:55.676Z,8.27
2022-11-15T22:55:22.859Z,6.15
2022-11-15T22:57:49.789Z,6.35
2022-11-15T23:00:16.980Z,8.80
2022-11-15T23:02:47.206Z,6.25
2022-11-15T23:05:15.300Z,7.72
2022-11-15T23:07:41.993Z,6.57
2022-11-15T23:10:27.899Z,8.30
2022-11-15T23:13:13.254Z,8.10
2022-11-15T23:15:58.467Z,7.05
2022-11-15T23:18:25.617Z,8.15
2022-11-15T23:20:52.394Z,6.57
2022-11-15T23:23:19.104Z,10.02
2022-11-15T23:25:45.867Z,7.95
2022-11-15T23:28:12.592Z,11.15
2022-11-15T23:30:57.908Z,7.95
2022-11-15T23:33:43.210Z,7.45
2022-11-15T23:36:09.892Z,7.53
2022-11-15T23:38:37.482Z,7.57
2022-11-15T23:41:05.772Z,10.30
2022-11-15T23:43:32.719Z,9.57
2022-11-15T23:46:02.758Z,9.27
2022-11-15T23:48:30.138Z,9.15
2022-11-15T23:50:57.010Z,8.70
2022-11-15T23:53:24.037Z,8.88
2022-11-15T23:56:10.161Z,12.88
2022-11-15T23:58:37.212Z,7.72
